createdAt,value
2022-08-03T00:00:12.057Z,30.5
2022-08-03T00:06:03.493Z,30.5
2022-08-03T00:11:13.476Z,30.4
2022-08-03T00:16:44.313Z,30.4
2022-08-03T00:22:15.389Z,30.4
2022-08-03T00:27:45.150Z,30.4
2022-08-03T00:33:15.780Z,30.4
2022-08-03T00:38:46.350Z,30.4
2022-08-03T00:44:16.935Z,30.4
2022-08-03T00:49:47.553Z,30.4
2022-08-03T00:55:18.360Z,30.4
2022-08-03T01:00:48.173Z,30.4
2022-08-03T01:06:18.827Z,30.4
2022-08-03T01:12:00.879Z,30.3
2022-08-03T01:17:20.004Z,30.4
2022-08-03T01:22:50.612Z,30.3
2022-08-03T01:28:21.226Z,30.3
2022-08-03T01:33:51.787Z,30.3
2022-08-03T01:39:22.397Z,30.3
2022-08-03T01:44:53.005Z,30.3
2022-08-03T01:50:22.797Z,30.3
2022-08-03T01:55:53.368Z,30.3
2022-08-03T02:01:24.015Z,30.3
2022-08-03T02:06:59.814Z,30.3
2022-08-03T02:12:25.192Z,30.3
2022-08-03T02:17:55.957Z,30.3
2022-08-03T02:23:26.793Z,30.3
2022-08-03T02:28:57.658Z,30.2
2022-08-03T02:34:27.520Z,30.2
2022-08-03T02:39:58.115Z,30.2
2022-08-03T02:45:28.752Z,30.2
2022-08-03T02:50:59.617Z,30.2
2022-08-03T02:56:29.973Z,30.2
2022-08-03T03:02:00.744Z,30.2
2022-08-03T03:07:34.660Z,30.2
2022-08-03T03:13:02.585Z,30.2
2022-08-03T03:18:32.262Z,30.2
2022-08-03T03:24:02.865Z,30.2
2022-08-03T03:29:39.182Z,30.1
2022-08-03T03:35:04.198Z,30.2
2022-08-03T03:40:34.798Z,30.1
2022-08-03T03:46:05.382Z,30.1
2022-08-03T03:51:35.999Z,30.1
2022-08-03T03:57:06.584Z,30.1
2022-08-03T04:02:37.175Z,30.1
2022-08-03T04:08:07.792Z,30.1
2022-08-03T04:13:37.599Z,30.1
2022-08-03T04:19:08.172Z,30.1
2022-08-03T04:24:38.798Z,30.1
2022-08-03T04:30:09.400Z,30.1
2022-08-03T04:36:01.341Z,30.1
2022-08-03T04:41:10.783Z,30.2
2022-08-03T04:46:41.444Z,30.2
2022-08-03T04:52:12.293Z,30.2
2022-08-03T04:57:42.403Z,30.2
2022-08-03T05:03:23.575Z,30.2
2022-08-03T05:08:47.115Z,30.2
2022-08-03T05:14:15.099Z,30.2
2022-08-03T05:19:45.929Z,30.1
2022-08-03T05:25:19.820Z,30.1
2022-08-03T05:30:46.915Z,30
2022-08-03T05:36:17.756Z,29.9
2022-08-03T05:41:48.588Z,29.8
2022-08-03T05:47:19.440Z,29.7
2022-08-03T05:52:50.396Z,29.6
2022-08-03T05:58:20.366Z,29.6
2022-08-03T06:03:51.254Z,29.6
2022-08-03T06:09:21.066Z,29.6
2022-08-03T06:14:51.661Z,29.6
2022-08-03T06:20:22.245Z,29.6
2022-08-03T06:25:52.834Z,29.7
2022-08-03T06:31:23.446Z,29.7
2022-08-03T06:36:57.314Z,29.7
2022-08-03T06:42:25.051Z,29.6
2022-08-03T06:47:55.867Z,29.6
2022-08-03T06:53:26.064Z,29.6
2022-08-03T06:58:56.222Z,29.7
2022-08-03T07:04:26.554Z,29.8
2022-08-03T07:09:58.292Z,29.9
2022-08-03T07:15:53.822Z,30
2022-08-03T07:20:58.313Z,30.3
2022-08-03T07:26:28.927Z,30.9
2022-08-03T07:31:59.907Z,32.2
2022-08-03T07:37:29.511Z,33.3
2022-08-03T07:43:00.133Z,34.2
2022-08-03T07:48:30.717Z,34.9
2022-08-03T07:54:01.322Z,35.4
2022-08-03T07:59:56.357Z,35.8
2022-08-03T08:05:05.652Z,36.2
2022-08-03T08:10:33.654Z,36.5
2022-08-03T08:16:03.709Z,36.7
2022-08-03T08:22:40.424Z,37.1
2022-08-03T08:28:31.260Z,37.5
2022-08-03T08:34:03.189Z,37.9
2022-08-03T08:39:12.241Z,38.2
2022-08-03T08:44:42.945Z,38.3
2022-08-03T08:50:24.788Z,38.4
2022-08-03T08:55:59.976Z,38.6
2022-08-03T09:01:14.842Z,38.7
2022-08-03T09:07:04.432Z,38.9
2022-08-03T09:12:40.611Z,39
2022-08-03T09:17:50.918Z,39
2022-08-03T09:23:51.583Z,38.8
2022-08-03T09:28:59.988Z,38.8
2022-08-03T09:34:18.077Z,38.6
2022-08-03T09:39:48.615Z,38.3
2022-08-03T09:45:19.257Z,37.9
2022-08-03T09:50:58.511Z,37.2
2022-08-03T09:56:33.495Z,36.1
2022-08-03T10:01:51.261Z,35.3
2022-08-03T10:07:22.112Z,34.7
2022-08-03T10:12:52.983Z,34.3
2022-08-03T10:18:22.948Z,34.1
2022-08-03T10:23:53.569Z,33.8
2022-08-03T10:29:24.205Z,33.6
2022-08-03T10:35:00.234Z,33.5
2022-08-03T10:40:47.665Z,33.3
2022-08-03T10:47:02.306Z,33.2
2022-08-03T10:52:40.901Z,33.1
2022-08-03T10:58:07.951Z,33
2022-08-03T11:03:34.660Z,33
2022-08-03T11:09:05.230Z,32.9
2022-08-03T11:14:35.793Z,32.8
2022-08-03T11:20:06.422Z,32.7
2022-08-03T11:25:54.988Z,32.7
2022-08-03T11:31:08.084Z,32.6
2022-08-03T11:36:38.965Z,32.6
2022-08-03T11:42:09.017Z,32.5
2022-08-03T11:47:50.323Z,32.5
2022-08-03T11:53:10.222Z,32.5
2022-08-03T11:59:16.631Z,32.4
2022-08-03T12:04:11.448Z,32.4
2022-08-03T12:09:42.195Z,32.3
2022-08-03T12:15:13.063Z,32.3
2022-08-03T12:20:43.895Z,32.3
2022-08-03T12:26:13.755Z,32.2
2022-08-03T12:31:44.378Z,32.2
2022-08-03T12:37:21.754Z,32.2
2022-08-03T12:42:45.563Z,32.1
2022-08-03T12:48:16.251Z,32.1
2022-08-03T12:53:46.960Z,32
2022-08-03T12:59:17.861Z,32
2022-08-03T13:04:48.765Z,32
2022-08-03T13:10:18.521Z,32
2022-08-03T13:15:49.122Z,32
2022-08-03T13:21:19.745Z,31.9
2022-08-03T13:26:49.350Z,31.9
2022-08-03T13:32:19.930Z,31.9
2022-08-03T13:37:50.572Z,31.9
2022-08-03T13:43:21.124Z,31.8
2022-08-03T13:48:51.718Z,31.9
2022-08-03T13:54:22.323Z,31.9
2022-08-03T13:59:52.933Z,31.9
2022-08-03T14:05:22.559Z,32
2022-08-03T14:10:53.167Z,32
2022-08-03T14:16:23.759Z,32
2022-08-03T14:22:06.184Z,31.9
2022-08-03T14:27:25.000Z,31.9
2022-08-03T14:33:00.456Z,31.9
2022-08-03T14:38:26.638Z,31.8
2022-08-03T14:44:01.483Z,31.8
2022-08-03T14:50:36.171Z,31.8
2022-08-03T14:54:58.138Z,31.8
2022-08-03T15:00:28.743Z,31.8
2022-08-03T15:05:59.346Z,31.8
2022-08-03T15:11:29.931Z,31.7
2022-08-03T15:17:00.785Z,31.7
2022-08-03T15:22:34.738Z,31.7
2022-08-03T15:28:04.017Z,31.7
2022-08-03T15:33:32.273Z,31.7
2022-08-03T15:39:02.941Z,31.7
2022-08-03T15:44:33.488Z,31.6
2022-08-03T15:50:09.214Z,31.6
2022-08-03T15:55:33.674Z,31.6
2022-08-03T16:01:03.358Z,31.6
2022-08-03T16:06:35.158Z,31.6
2022-08-03T16:12:04.478Z,31.6
2022-08-03T16:17:35.104Z,31.6
2022-08-03T16:23:10.678Z,31.5
2022-08-03T16:28:36.316Z,31.6
2022-08-03T16:34:06.948Z,31.6
2022-08-03T16:39:36.688Z,31.6
2022-08-03T16:45:07.153Z,31.6
2022-08-03T16:50:37.755Z,31.7
2022-08-03T16:56:10.587Z,31.7
2022-08-03T17:01:39.042Z,31.7
2022-08-03T17:07:09.678Z,31.7
2022-08-03T17:12:40.507Z,31.8
2022-08-03T17:18:11.384Z,31.8
2022-08-03T17:23:41.161Z,31.8
2022-08-03T17:29:12.776Z,31.8
2022-08-03T17:34:42.397Z,31.8
2022-08-03T17:40:17.973Z,31.8
2022-08-03T17:45:52.704Z,31.8
2022-08-03T17:56:46.427Z,31.9
2022-08-03T18:02:25.170Z,31.9
2022-08-03T18:07:46.192Z,31.9
2022-08-03T18:13:17.036Z,31.9
2022-08-03T18:18:48.628Z,31.8
2022-08-03T18:24:18.768Z,31.8
2022-08-03T18:29:49.603Z,31.8
2022-08-03T18:35:19.674Z,31.8
2022-08-03T18:40:49.367Z,31.8
2022-08-03T18:46:19.884Z,31.7
2022-08-03T18:51:50.490Z,31.7
2022-08-03T18:57:21.101Z,31.7
2022-08-03T19:02:51.704Z,31.7
2022-08-03T19:08:22.313Z,31.7
2022-08-03T19:13:52.919Z,31.7
2022-08-03T19:19:24.669Z,31.6
2022-08-03T19:24:54.295Z,31.6
2022-08-03T19:30:26.286Z,31.6
2022-08-03T19:35:57.296Z,31.5
2022-08-03T19:41:24.407Z,31.5
2022-08-03T19:46:55.010Z,31.5
2022-08-03T19:52:31.257Z,31.5
2022-08-03T19:57:57.216Z,31.5
2022-08-03T20:03:26.783Z,31.5
2022-08-03T20:08:57.370Z,31.4
2022-08-03T20:14:27.991Z,31.4
2022-08-03T20:19:58.688Z,31.4
2022-08-03T20:25:38.349Z,31.4
2022-08-03T20:30:59.881Z,31.4
2022-08-03T20:36:29.739Z,31.4
2022-08-03T20:42:00.343Z,31.3
2022-08-03T20:47:30.931Z,31.3
2022-08-03T20:53:02.731Z,31.3
2022-08-03T20:58:32.142Z,31.3
2022-08-03T21:04:04.491Z,31.3
2022-08-03T21:09:40.130Z,31.3
2022-08-03T21:13:04.520Z,31.8
2022-08-03T21:15:04.533Z,31.3
2022-08-03T21:20:34.650Z,31.3
2022-08-03T21:26:05.250Z,31.3
2022-08-03T21:31:35.864Z,31.3
2022-08-03T21:37:06.453Z,31.2
2022-08-03T21:42:37.047Z,31.2
2022-08-03T21:48:07.679Z,31.2
2022-08-03T21:54:03.812Z,31.2
2022-08-03T21:59:09.412Z,31.2
2022-08-03T22:04:55.038Z,31.2
2022-08-03T22:10:10.020Z,31.2
2022-08-03T22:15:40.601Z,31.2
2022-08-03T22:21:11.183Z,31.2
2022-08-03T22:26:41.784Z,31.2
2022-08-03T22:32:12.509Z,31.1
2022-08-03T22:37:43.471Z,31.1
2022-08-03T22:43:14.341Z,31.1
2022-08-03T22:48:44.412Z,31.1
2022-08-03T22:54:15.000Z,31.1
2022-08-03T22:59:45.735Z,31.1
2022-08-03T23:06:02.509Z,31.1
2022-08-03T23:10:47.410Z,31.1
2022-08-03T23:16:28.601Z,31
2022-08-03T23:21:53.720Z,31
2022-08-03T23:27:18.886Z,31
2022-08-03T23:32:54.794Z,31
2022-08-03T23:38:22.740Z,31
2022-08-03T23:43:54.082Z,31
2022-08-03T23:49:21.816Z,31
2022-08-03T23:54:51.671Z,31
